createdAt,value
2018-11-23T00:00:08.913Z,17.00
2018-11-23T00:05:10.066Z,19.97
2018-11-23T00:10:11.322Z,18.63
2018-11-23T00:15:12.339Z,17.00
2018-11-23T00:20:13.519Z,18.53
2018-11-23T00:25:14.540Z,17.90
2018-11-23T00:30:15.611Z,17.67
2018-11-23T00:35:16.747Z,17.67
2018-11-23T00:40:17.871Z,18.83
2018-11-23T00:45:18.906Z,17.67
2018-11-23T00:50:20.055Z,18.33
2018-11-23T00:55:21.077Z,18.33
2018-11-23T01:00:22.221Z,16.03
2018-11-23T01:05:24.305Z,16.57
2018-11-23T01:10:25.398Z,16.77
2018-11-23T01:15:26.569Z,16.33
2018-11-23T01:20:27.732Z,17.93
2018-11-23T01:25:28.779Z,16.57
2018-11-23T01:30:29.948Z,18.27
2018-11-23T01:35:31.018Z,15.93
2018-11-23T01:40:32.065Z,17.83
2018-11-23T01:45:33.297Z,18.00
2018-11-23T01:50:34.439Z,17.43
2018-11-23T01:55:35.580Z,17.63
2018-11-23T02:00:36.658Z,17.40
2018-11-23T02:05:38.193Z,16.63
2018-11-23T02:10:39.223Z,16.87
2018-11-23T02:15:40.318Z,16.57
2018-11-23T02:20:41.508Z,15.93
2018-11-23T02:25:42.897Z,17.87
2018-11-23T02:30:44.083Z,18.53
2018-11-23T02:35:45.374Z,17.37
2018-11-23T02:40:46.617Z,18.67
2018-11-23T02:45:47.875Z,17.63
2018-11-23T02:50:49.151Z,17.17
2018-11-23T02:55:50.294Z,15.90
2018-11-23T03:00:51.553Z,17.83
2018-11-23T03:05:52.635Z,16.13
2018-11-23T03:10:53.706Z,16.13
2018-11-23T03:15:54.832Z,16.67
2018-11-23T03:20:56.084Z,18.27
2018-11-23T03:25:57.257Z,18.77
2018-11-23T03:30:58.444Z,18.77
2018-11-23T03:35:59.844Z,19.63
2018-11-23T03:41:00.930Z,17.63
2018-11-23T03:46:02.008Z,21.23
2018-11-23T03:51:03.110Z,23.53
2018-11-23T03:56:04.343Z,22.60
2018-11-23T04:01:05.420Z,22.07
2018-11-23T04:06:06.515Z,23.20
2018-11-23T04:11:07.927Z,24.53
2018-11-23T04:16:09.063Z,25.93
2018-11-23T04:21:10.128Z,26.37
2018-11-23T04:26:11.185Z,25.10
2018-11-23T04:31:12.231Z,22.07
2018-11-23T04:36:13.458Z,21.57
2018-11-23T04:41:14.574Z,22.50
2018-11-23T04:46:15.740Z,20.97
2018-11-23T04:51:16.800Z,20.77
2018-11-23T04:56:17.915Z,24.23
2018-11-23T05:01:18.958Z,22.63
2018-11-23T05:06:20.225Z,23.47
2018-11-23T05:11:21.611Z,23.63
2018-11-23T05:16:22.746Z,24.97
2018-11-23T05:21:23.870Z,25.37
2018-11-23T05:26:24.982Z,26.70
2018-11-23T05:31:26.193Z,24.83
2018-11-23T05:36:27.369Z,23.87
2018-11-23T05:41:28.444Z,24.73
2018-11-23T05:46:29.503Z,23.20
2018-11-23T05:51:30.731Z,22.93
2018-11-23T05:56:31.888Z,22.27
2018-11-23T06:01:32.984Z,20.20
2018-11-23T06:06:34.014Z,21.50
2018-11-23T06:11:35.089Z,20.10
2018-11-23T06:16:39.514Z,19.27
2018-11-23T06:21:41.534Z,24.17
2018-11-23T06:26:42.759Z,22.47
2018-11-23T06:31:43.806Z,25.67
2018-11-23T06:36:45.001Z,25.07
2018-11-23T06:41:46.136Z,27.93
2018-11-23T06:46:47.875Z,28.13
2018-11-23T06:51:48.994Z,28.63
2018-11-23T06:56:50.114Z,29.93
2018-11-23T07:01:51.566Z,36.37
2018-11-23T07:06:52.672Z,33.80
2018-11-23T07:11:53.701Z,34.60
2018-11-23T07:16:55.210Z,44.20
2018-11-23T07:21:58.047Z,40.87
2018-11-23T07:27:01.958Z,39.40
2018-11-23T07:32:03.014Z,31.37
2018-11-23T07:37:04.260Z,32.00
2018-11-23T07:42:05.454Z,28.63
2018-11-23T07:47:06.557Z,28.20
2018-11-23T07:52:07.725Z,24.97
2018-11-23T07:57:08.807Z,24.60
2018-11-23T08:02:10.293Z,23.23
2018-11-23T08:07:11.382Z,21.60
2018-11-23T08:12:12.472Z,20.03
2018-11-23T08:17:14.143Z,22.87
2018-11-23T08:22:15.345Z,19.27
2018-11-23T08:27:16.552Z,19.60
2018-11-23T08:32:18.163Z,21.30
2018-11-23T08:37:19.291Z,18.30
2018-11-23T08:42:27.467Z,20.83
2018-11-23T08:47:29.528Z,19.83
2018-11-23T08:52:30.614Z,23.27
2018-11-23T08:57:31.682Z,25.47
2018-11-23T09:02:32.798Z,22.07
2018-11-23T09:07:33.926Z,23.43
2018-11-23T09:12:35.045Z,21.47
2018-11-23T09:17:36.128Z,23.20
2018-11-23T09:22:37.317Z,22.07
2018-11-23T09:27:38.569Z,22.27
2018-11-23T09:32:39.867Z,21.43
2018-11-23T09:37:41.047Z,23.03
2018-11-23T09:42:42.079Z,22.93
2018-11-23T09:47:43.306Z,41.27
2018-11-23T09:52:44.467Z,20.40
2018-11-23T09:57:45.704Z,21.77
2018-11-23T10:02:46.760Z,19.07
2018-11-23T10:07:47.851Z,19.37
2018-11-23T10:12:48.886Z,21.43
2018-11-23T10:17:50.089Z,19.37
2018-11-23T10:22:54.811Z,19.73
2018-11-23T10:27:55.920Z,19.93
2018-11-23T10:32:57.026Z,20.33
2018-11-23T10:37:58.070Z,22.23
2018-11-23T10:42:59.362Z,22.10
2018-11-23T10:48:02.157Z,21.93
2018-11-23T10:53:03.979Z,28.70
2018-11-23T10:58:05.609Z,20.83
2018-11-23T11:03:07.570Z,24.50
2018-11-23T11:08:09.172Z,20.80
2018-11-23T11:13:10.556Z,42.43
2018-11-23T11:18:11.879Z,32.43
2018-11-23T11:23:13.990Z,24.00
2018-11-23T11:28:15.212Z,23.23
2018-11-23T11:33:16.349Z,24.53
2018-11-23T11:38:18.521Z,23.87
2018-11-23T11:43:20.377Z,22.63
2018-11-23T11:48:21.447Z,25.03
2018-11-23T11:53:22.611Z,22.70
2018-11-23T11:58:23.731Z,29.00
2018-11-23T12:03:24.920Z,22.50
2018-11-23T12:08:26.121Z,20.77
2018-11-23T12:13:27.628Z,20.47
2018-11-23T12:18:28.885Z,20.67
2018-11-23T12:23:30.149Z,20.33
2018-11-23T12:33:59.813Z,22.03
2018-11-23T12:39:01.029Z,20.27
2018-11-23T12:44:02.218Z,21.00
2018-11-23T12:49:03.405Z,21.53
2018-11-23T12:54:04.747Z,20.30
2018-11-23T12:59:05.940Z,21.17
2018-11-23T13:04:07.104Z,20.43
2018-11-23T13:09:08.362Z,19.40
2018-11-23T13:14:09.597Z,21.33
2018-11-23T13:19:11.010Z,19.03
2018-11-23T13:24:12.301Z,20.27
2018-11-23T13:29:16.194Z,20.60
2018-11-23T13:34:14.637Z,19.67
2018-11-23T13:39:15.874Z,20.17
2018-11-23T13:44:17.020Z,19.33
2018-11-23T13:49:18.609Z,20.07
2018-11-23T13:54:19.959Z,19.23
2018-11-23T13:59:21.057Z,19.63
2018-11-23T14:04:22.254Z,21.00
2018-11-23T14:09:31.634Z,19.70
2018-11-23T14:14:33.051Z,19.43
2018-11-23T14:19:34.265Z,20.30
2018-11-23T14:24:35.406Z,19.97
2018-11-23T14:29:36.798Z,18.93
2018-11-23T14:34:38.107Z,20.07
2018-11-23T14:39:39.297Z,21.50
2018-11-23T14:44:40.443Z,21.13
2018-11-23T14:49:41.630Z,21.13
2018-11-23T14:54:43.290Z,21.67
2018-11-23T14:59:44.440Z,21.57
2018-11-23T15:04:45.546Z,21.10
2018-11-23T15:09:46.697Z,21.70
2018-11-23T15:14:47.788Z,20.27
2018-11-23T15:19:48.899Z,18.93
2018-11-23T15:24:50.037Z,20.87
2018-11-23T15:29:51.173Z,19.67
2018-11-23T15:34:52.645Z,20.93
2018-11-23T15:39:53.855Z,20.33
2018-11-23T15:44:54.982Z,21.83
2018-11-23T15:49:56.047Z,21.57
2018-11-23T15:54:57.193Z,19.97
2018-11-23T15:59:59.231Z,18.50
2018-11-23T16:05:00.363Z,19.63
2018-11-23T16:10:01.510Z,19.93
2018-11-23T16:15:02.725Z,20.43
2018-11-23T16:20:03.818Z,19.50
2018-11-23T16:25:05.030Z,21.67
2018-11-23T16:30:06.233Z,20.43
2018-11-23T16:35:07.413Z,20.03
2018-11-23T16:40:08.589Z,21.53
2018-11-23T16:45:09.776Z,19.87
2018-11-23T16:50:10.878Z,20.27
2018-11-23T16:55:12.066Z,20.97
2018-11-23T17:00:13.259Z,17.57
2018-11-23T17:05:14.434Z,19.90
2018-11-23T17:10:15.783Z,20.43
2018-11-23T17:15:17.002Z,23.17
2018-11-23T17:20:18.215Z,20.37
2018-11-23T17:25:19.388Z,21.57
2018-11-23T17:30:20.511Z,20.17
2018-11-23T17:35:21.682Z,20.43
2018-11-23T17:40:22.880Z,20.60
2018-11-23T17:45:25.073Z,22.40
2018-11-23T17:50:26.244Z,24.47
2018-11-23T17:55:27.396Z,26.73
2018-11-23T18:00:28.593Z,26.03
2018-11-23T18:05:29.749Z,25.87
2018-11-23T18:10:30.959Z,22.73
2018-11-23T18:15:32.086Z,23.63
2018-11-23T18:20:34.491Z,23.67
2018-11-23T18:25:37.611Z,24.80
2018-11-23T18:30:40.799Z,23.43
2018-11-23T18:35:42.917Z,46.97
2018-11-23T18:40:45.490Z,30.17
2018-11-23T18:45:46.941Z,24.73
2018-11-23T18:50:48.632Z,23.50
2018-11-23T18:55:50.561Z,24.77
2018-11-23T19:00:52.043Z,22.00
2018-11-23T19:05:53.337Z,20.77
2018-11-23T19:10:54.636Z,20.03
2018-11-23T19:15:55.851Z,20.47
2018-11-23T19:20:57.236Z,17.80
2018-11-23T19:25:59.393Z,18.07
2018-11-23T19:31:00.965Z,20.87
2018-11-23T19:36:02.349Z,17.90
2018-11-23T19:41:04.117Z,18.77
2018-11-23T19:46:05.528Z,17.80
2018-11-23T19:51:08.789Z,17.73
2018-11-23T19:56:11.116Z,20.17
2018-11-23T20:01:12.934Z,18.77
2018-11-23T20:06:15.359Z,18.03
2018-11-23T20:11:17.790Z,17.33
2018-11-23T20:16:19.690Z,16.53
2018-11-23T20:21:21.240Z,17.43
2018-11-23T20:26:22.904Z,17.93
2018-11-23T20:31:24.337Z,18.27
2018-11-23T20:36:25.611Z,18.93
2018-11-23T20:41:28.051Z,18.13
2018-11-23T20:46:30.983Z,23.33
2018-11-23T20:51:33.349Z,23.60
2018-11-23T20:56:35.180Z,21.40
2018-11-23T21:01:36.961Z,21.70
2018-11-23T21:06:38.535Z,24.20
2018-11-23T21:11:41.200Z,22.33
2018-11-23T21:16:43.613Z,22.63
2018-11-23T21:21:47.864Z,20.50
2018-11-23T21:26:55.135Z,18.47
2018-11-23T21:32:03.127Z,19.07
2018-11-23T21:37:14.697Z,19.30
2018-11-23T21:42:23.360Z,20.57
2018-11-23T21:47:34.788Z,18.87
2018-11-23T21:52:56.947Z,18.03
2018-11-23T21:58:09.474Z,19.27
2018-11-23T22:03:32.325Z,17.90
2018-11-23T22:14:08.173Z,18.27
2018-11-23T22:19:20.774Z,19.03
2018-11-23T22:24:32.856Z,18.97
2018-11-23T22:35:16.712Z,18.83
2018-11-23T22:40:18.240Z,19.13
2018-11-23T22:45:19.954Z,19.37
2018-11-23T22:50:22.465Z,18.87
2018-11-23T22:55:23.939Z,20.40
2018-11-23T23:00:25.601Z,20.63
2018-11-23T23:05:27.242Z,20.97
2018-11-23T23:10:28.891Z,19.77
2018-11-23T23:15:30.733Z,20.97
2018-11-23T23:20:32.188Z,20.73
2018-11-23T23:25:33.912Z,22.83
2018-11-23T23:30:37.651Z,20.67
2018-11-23T23:35:39.070Z,19.97
2018-11-23T23:40:41.708Z,20.53
2018-11-23T23:45:43.098Z,22.27
2018-11-23T23:50:44.572Z,20.10
2018-11-23T23:55:46.276Z,20.20
